Time;durP1;ratioP1;P1;durP2;ratioP2;P2;SDS_P1;SDS_P2;PMS_P1;PMS_P2;Temp;Humidity;BMP_temperature;BMP_pressure;BME280_temperature;BME280_humidity;BME280_pressure;Samples;Min_cycle;Max_cycle;Signal;HPM_P1;HPM_P2
2023/07/22 00:00:05;;;;;;;2.27;2.10;;;27.50;56.70;;;;;;5047411;28;20866;-69
2023/07/22 00:02:35;;;;;;;2.37;2.17;;;27.50;56.70;;;;;;5046368;28;20459;-68
2023/07/22 00:05:04;;;;;;;1.97;1.87;;;27.50;56.70;;;;;;5045041;28;20875;-69
2023/07/22 00:07:33;;;;;;;2.00;1.90;;;27.50;56.70;;;;;;5048769;28;20467;-79
2023/07/22 00:10:01;;;;;;;2.23;2.03;;;27.50;56.60;;;;;;5048842;28;20463;-68
2023/07/22 00:12:30;;;;;;;2.63;2.23;;;27.50;56.60;;;;;;5051779;28;20822;-69
2023/07/22 00:14:59;;;;;;;2.97;2.17;;;27.50;56.60;;;;;;5043620;28;20546;-71
2023/07/22 00:17:27;;;;;;;2.20;2.10;;;27.50;56.60;;;;;;5057163;28;20472;-70
2023/07/22 00:19:56;;;;;;;2.50;1.97;;;27.40;56.60;;;;;;5047856;28;20457;-73
2023/07/22 00:22:26;;;;;;;1.87;1.77;;;27.40;56.70;;;;;;5028586;28;20531;-79
2023/07/22 00:24:54;;;;;;;2.13;1.97;;;27.40;56.60;;;;;;5050988;28;20465;-71
2023/07/22 00:27:23;;;;;;;2.43;2.23;;;27.40;56.60;;;;;;5045386;28;20463;-71
2023/07/22 00:29:51;;;;;;;1.93;1.63;;;27.40;56.60;;;;;;5046276;28;20479;-70
2023/07/22 00:32:19;;;;;;;2.27;2.10;;;27.40;56.60;;;;;;5045332;28;20477;-69
2023/07/22 00:34:47;;;;;;;1.90;1.80;;;27.40;56.60;;;;;;5030887;28;20464;-71
2023/07/22 00:37:17;;;;;;;2.30;2.10;;;27.40;56.60;;;;;;5042315;28;20517;-68
2023/07/22 00:39:46;;;;;;;2.80;2.40;;;27.40;56.60;;;;;;5030263;28;20502;-69
2023/07/22 00:42:14;;;;;;;3.07;2.20;;;27.40;56.60;;;;;;5032955;28;20834;-69
2023/07/22 00:44:42;;;;;;;2.80;2.40;;;27.40;56.60;;;;;;5050458;28;20462;-71
2023/07/22 00:47:11;;;;;;;2.80;2.60;;;27.40;56.70;;;;;;5048414;28;20463;-68
2023/07/22 00:49:40;;;;;;;2.53;2.33;;;27.40;56.60;;;;;;5030711;28;20469;-69
2023/07/22 00:52:08;;;;;;;2.80;2.50;;;27.40;56.60;;;;;;5048050;28;20450;-69
2023/07/22 00:54:38;;;;;;;2.50;2.30;;;27.40;56.60;;;;;;5042202;28;20447;-73
2023/07/22 00:57:08;;;;;;;2.73;2.40;;;27.30;56.60;;;;;;5032354;28;20560;-75
2023/07/22 00:59:36;;;;;;;2.80;2.60;;;27.30;56.70;;;;;;5049526;28;20474;-68
2023/07/22 01:02:06;;;;;;;3.03;2.70;;;27.30;56.70;;;;;;5045663;28;20462;-73
2023/07/22 01:04:35;;;;;;;3.13;2.93;;;27.30;56.70;;;;;;5023651;28;20458;-69
2023/07/22 01:07:06;;;;;;;3.50;3.20;;;27.30;56.70;;;;;;5047389;28;20469;-72
2023/07/22 01:09:38;;;;;;;3.07;2.77;;;27.30;56.70;;;;;;5040928;28;21019;-68
2023/07/22 01:12:07;;;;;;;3.53;3.20;;;27.30;56.70;;;;;;5047136;28;20458;-68
2023/07/22 01:14:35;;;;;;;4.40;3.53;;;27.30;56.70;;;;;;5043296;28;20818;-68
2023/07/22 01:17:05;;;;;;;3.20;2.70;;;27.30;56.70;;;;;;5029874;28;20546;-79
2023/07/22 01:19:34;;;;;;;3.93;3.57;;;27.30;56.70;;;;;;5052421;28;20474;-68
2023/07/22 01:22:04;;;;;;;3.63;3.33;;;27.30;56.70;;;;;;5045788;28;20463;-68
2023/07/22 01:24:34;;;;;;;3.50;3.20;;;27.30;56.70;;;;;;5050107;28;20865;-73
2023/07/22 01:27:04;;;;;;;4.70;2.80;;;27.30;56.70;;;;;;5027824;28;20458;-70
2023/07/22 01:29:32;;;;;;;3.13;2.70;;;27.30;56.70;;;;;;5046177;28;20488;-76
2023/07/22 01:32:00;;;;;;;3.20;2.90;;;27.20;56.70;;;;;;5048969;28;20462;-73
2023/07/22 01:34:29;;;;;;;5.40;3.67;;;27.20;56.70;;;;;;5021835;28;20526;-78
2023/07/22 01:36:58;;;;;;;2.73;2.50;;;27.20;56.70;;;;;;5048779;28;20511;-68
2023/07/22 01:39:27;;;;;;;2.93;2.30;;;27.20;56.70;;;;;;5044233;28;20503;-70
2023/07/22 01:41:57;;;;;;;3.83;3.03;;;27.20;56.70;;;;;;5054089;28;20672;-75
2023/07/22 01:44:25;;;;;;;2.70;2.33;;;27.20;56.70;;;;;;5047289;28;20980;-68
2023/07/22 01:46:53;;;;;;;2.40;2.20;;;27.20;56.70;;;;;;5045391;28;20446;-69
2023/07/22 01:49:22;;;;;;;2.63;2.43;;;27.20;56.70;;;;;;5030343;28;20552;-74
2023/07/22 01:51:52;;;;;;;3.00;2.70;;;27.20;56.60;;;;;;5040430;28;21068;-70
2023/07/22 01:54:20;;;;;;;2.50;2.30;;;27.20;56.70;;;;;;5052011;28;20484;-68
2023/07/22 01:56:49;;;;;;;3.30;2.90;;;27.20;56.60;;;;;;5050260;28;20458;-68
2023/07/22 01:59:18;;;;;;;2.10;1.90;;;27.20;56.60;;;;;;5037376;28;20560;-70
2023/07/22 02:01:47;;;;;;;2.37;2.13;;;27.20;56.60;;;;;;5027971;28;20473;-72
2023/07/22 02:04:15;;;;;;;2.03;1.93;;;27.20;56.70;;;;;;5053990;28;20468;-69
2023/07/22 02:06:44;;;;;;;2.60;2.10;;;27.10;56.60;;;;;;5053791;28;20575;-69
2023/07/22 02:09:13;;;;;;;2.53;2.33;;;27.10;56.60;;;;;;5021664;28;20504;-68
2023/07/22 02:11:42;;;;;;;2.40;2.20;;;27.10;56.60;;;;;;5031991;28;20461;-68
2023/07/22 02:14:10;;;;;;;6.10;2.50;;;27.10;56.60;;;;;;5045118;28;20455;-68
2023/07/22 02:16:40;;;;;;;2.50;2.30;;;27.10;56.60;;;;;;5050823;28;20462;-69
2023/07/22 02:19:08;;;;;;;3.20;2.30;;;27.10;56.60;;;;;;5031074;28;20481;-75
2023/07/22 02:21:41;;;;;;;3.43;2.73;;;27.10;56.60;;;;;;5049072;28;20450;-68
2023/07/22 02:24:09;;;;;;;3.10;2.83;;;27.10;56.50;;;;;;5046359;28;20979;-68
2023/07/22 02:26:37;;;;;;;2.67;2.47;;;27.10;56.50;;;;;;5054763;28;20942;-69
2023/07/22 02:29:06;;;;;;;3.47;2.60;;;27.10;56.50;;;;;;5042986;28;20478;-71
2023/07/22 02:31:34;;;;;;;4.10;3.17;;;27.10;56.60;;;;;;5052803;28;20462;-74
2023/07/22 02:34:03;;;;;;;2.83;2.40;;;27.00;56.60;;;;;;5042876;28;20979;-71
2023/07/22 02:36:32;;;;;;;3.37;2.97;;;27.10;56.50;;;;;;5038580;28;20463;-68
2023/07/22 02:39:00;;;;;;;2.60;2.40;;;27.00;56.50;;;;;;5034737;28;20495;-69
2023/07/22 02:41:28;;;;;;;2.63;2.40;;;27.00;56.60;;;;;;5050170;28;20452;-73
2023/07/22 02:43:57;;;;;;;3.07;2.53;;;27.00;56.60;;;;;;5027645;28;20477;-79
2023/07/22 02:46:25;;;;;;;3.47;2.73;;;27.00;56.60;;;;;;5047857;28;20470;-70
2023/07/22 02:48:54;;;;;;;3.00;2.80;;;27.00;56.60;;;;;;5050577;28;20472;-68
2023/07/22 02:51:24;;;;;;;2.43;2.20;;;27.00;56.60;;;;;;5031245;28;20988;-69
2023/07/22 02:53:52;;;;;;;3.50;2.20;;;27.00;56.60;;;;;;5049909;28;20512;-69
2023/07/22 02:56:20;;;;;;;2.57;2.37;;;27.00;56.60;;;;;;5047698;28;20474;-69
2023/07/22 02:58:49;;;;;;;3.23;2.33;;;27.00;56.70;;;;;;5030992;28;20467;-69
2023/07/22 03:01:18;;;;;;;2.10;2.00;;;27.00;56.70;;;;;;5046277;28;20847;-70
2023/07/22 03:03:47;;;;;;;3.23;2.20;;;27.00;56.60;;;;;;5032776;28;20463;-69
2023/07/22 03:06:15;;;;;;;2.37;2.17;;;27.00;56.60;;;;;;5031880;28;20478;-72
2023/07/22 03:08:45;;;;;;;2.27;2.10;;;27.00;56.70;;;;;;5048786;28;20466;-83
2023/07/22 03:11:13;;;;;;;2.40;2.20;;;27.00;56.60;;;;;;5030198;28;20463;-82
2023/07/22 03:13:41;;;;;;;2.43;2.03;;;27.00;56.60;;;;;;5041145;28;20502;-68
2023/07/22 03:16:10;;;;;;;2.63;2.43;;;26.90;56.60;;;;;;5031231;28;20511;-69
2023/07/22 03:18:39;;;;;;;2.13;2.03;;;26.90;56.60;;;;;;5052635;28;21032;-70
2023/07/22 03:21:08;;;;;;;2.20;2.00;;;26.90;56.60;;;;;;5027852;28;20511;-77
2023/07/22 03:23:37;;;;;;;4.03;2.40;;;26.90;56.60;;;;;;5030061;28;20477;-71
2023/07/22 03:26:06;;;;;;;2.00;1.90;;;26.90;56.60;;;;;;5052698;28;20468;-72
2023/07/22 03:28:35;;;;;;;3.00;2.20;;;26.90;56.60;;;;;;5046541;28;20509;-74
2023/07/22 03:31:04;;;;;;;2.83;1.90;;;26.90;56.60;;;;;;5041781;28;20474;-69
2023/07/22 03:33:32;;;;;;;1.77;1.67;;;26.90;56.60;;;;;;5046423;28;20451;-79
2023/07/22 03:36:01;;;;;;;3.43;2.23;;;26.90;56.60;;;;;;5038243;28;20558;-68
2023/07/22 03:38:29;;;;;;;2.23;2.03;;;26.90;56.60;;;;;;5042656;28;20581;-69
2023/07/22 03:40:57;;;;;;;2.20;1.97;;;26.90;56.60;;;;;;5049238;28;20558;-72
2023/07/22 03:43:27;;;;;;;2.83;2.37;;;26.90;56.60;;;;;;5047181;28;20467;-70
2023/07/22 03:45:55;;;;;;;3.47;1.80;;;26.90;56.60;;;;;;5028422;28;20506;-78
2023/07/22 03:48:23;;;;;;;2.07;1.97;;;26.90;56.60;;;;;;5042465;28;20463;-68
2023/07/22 03:50:51;;;;;;;2.20;2.10;;;26.90;56.60;;;;;;5047007;28;20820;-70
2023/07/22 03:53:32;;;;;;;2.00;1.90;;;26.90;56.60;;;;;;5044708;28;20558;-73
2023/07/22 03:56:00;;;;;;;2.27;1.80;;;26.90;56.60;;;;;;5027754;28;20473;-69
2023/07/22 03:58:30;;;;;;;3.40;2.33;;;26.90;56.60;;;;;;5044066;28;20506;-68
2023/07/22 04:00:58;;;;;;;2.40;2.20;;;26.90;56.60;;;;;;5051587;28;20507;-69
2023/07/22 04:03:26;;;;;;;2.47;2.30;;;26.80;56.60;;;;;;5050432;28;20501;-76
2023/07/22 04:05:55;;;;;;;2.63;2.43;;;26.80;56.60;;;;;;5054649;28;20461;-71
2023/07/22 04:08:24;;;;;;;1.97;1.87;;;26.80;56.60;;;;;;5034120;28;20473;-68
2023/07/22 04:10:53;;;;;;;2.40;2.20;;;26.80;56.60;;;;;;5041801;28;20547;-73
2023/07/22 04:13:21;;;;;;;3.73;3.43;;;26.80;56.60;;;;;;5025637;28;20475;-75
2023/07/22 04:15:51;;;;;;;1.90;1.80;;;26.80;56.60;;;;;;5044784;28;20466;-68
2023/07/22 04:18:21;;;;;;;2.33;2.13;;;26.80;56.60;;;;;;5048941;28;20454;-68
2023/07/22 04:20:56;;;;;;;2.17;2.00;;;26.80;56.50;;;;;;5027850;28;20492;-68
2023/07/22 04:23:24;;;;;;;2.30;2.10;;;26.80;56.60;;;;;;5046329;28;20513;-72
2023/07/22 04:25:52;;;;;;;2.27;2.10;;;26.80;56.50;;;;;;5041808;28;20562;-68
2023/07/22 04:28:21;;;;;;;2.17;2.00;;;26.80;56.60;;;;;;5024087;28;20465;-68
2023/07/22 04:30:58;;;;;;;2.40;2.20;;;26.80;56.60;;;;;;5043351;28;20457;-69
2023/07/22 04:33:27;;;;;;;2.63;2.43;;;26.80;56.60;;;;;;5046953;28;20465;-80
2023/07/22 04:35:58;;;;;;;2.10;2.00;;;26.80;56.60;;;;;;5049590;28;20556;-74
2023/07/22 04:38:26;;;;;;;2.10;1.90;;;26.80;56.60;;;;;;5032498;28;20496;-74
2023/07/22 04:40:55;;;;;;;1.77;1.67;;;26.80;56.50;;;;;;5041223;28;20475;-69
2023/07/22 04:43:24;;;;;;;2.20;1.83;;;26.80;56.50;;;;;;5048374;28;20456;-68
2023/07/22 04:45:52;;;;;;;2.50;2.23;;;26.80;56.50;;;;;;5049854;28;20457;-69
2023/07/22 04:48:23;;;;;;;1.87;1.77;;;26.80;56.50;;;;;;5043897;28;20889;-75
2023/07/22 04:50:51;;;;;;;2.20;2.00;;;26.80;56.50;;;;;;5045699;28;20946;-69
2023/07/22 04:53:20;;;;;;;2.07;1.97;;;26.80;56.50;;;;;;5049297;28;20512;-68
2023/07/22 04:55:48;;;;;;;2.53;2.17;;;26.80;56.50;;;;;;5051159;28;20496;-68
2023/07/22 04:58:16;;;;;;;2.50;2.30;;;26.80;56.50;;;;;;5049170;28;20466;-70
2023/07/22 05:00:44;;;;;;;2.57;2.37;;;26.80;56.50;;;;;;5039330;28;20486;-68
2023/07/22 05:03:13;;;;;;;2.43;2.23;;;26.80;56.50;;;;;;5034886;28;20456;-68
2023/07/22 05:05:44;;;;;;;1.90;1.80;;;26.80;56.50;;;;;;5041467;28;20468;-69
2023/07/22 05:08:12;;;;;;;2.37;1.60;;;26.80;56.50;;;;;;5053362;28;20469;-69
2023/07/22 05:10:40;;;;;;;2.00;1.80;;;26.80;56.50;;;;;;5048841;28;20490;-68
2023/07/22 05:13:09;;;;;;;1.67;1.57;;;26.80;56.50;;;;;;5050762;28;20516;-72
2023/07/22 05:15:37;;;;;;;1.87;1.77;;;26.80;56.50;;;;;;5052937;28;20480;-70
2023/07/22 05:18:05;;;;;;;2.13;1.90;;;26.80;56.50;;;;;;5049121;28;20453;-68
2023/07/22 05:20:33;;;;;;;2.80;1.90;;;26.80;56.50;;;;;;5047378;28;20545;-68
2023/07/22 05:23:03;;;;;;;3.30;1.60;;;26.80;56.50;;;;;;5049120;28;20462;-70
2023/07/22 05:25:31;;;;;;;2.17;1.97;;;26.80;56.50;;;;;;5049738;28;20453;-69
2023/07/22 05:27:59;;;;;;;1.93;1.83;;;26.90;56.50;;;;;;5046892;28;20469;-69
2023/07/22 05:30:27;;;;;;;1.70;1.60;;;26.90;56.50;;;;;;5048456;28;21156;-69
2023/07/22 05:33:03;;;;;;;1.90;1.80;;;26.90;56.50;;;;;;5053561;28;20938;-69
2023/07/22 05:35:31;;;;;;;1.73;1.63;;;26.90;56.50;;;;;;5047185;28;20504;-69
2023/07/22 05:38:00;;;;;;;2.40;2.20;;;26.90;56.60;;;;;;5048716;28;20485;-70
2023/07/22 05:40:30;;;;;;;2.97;2.30;;;26.90;56.60;;;;;;5048479;28;20460;-69
2023/07/22 05:42:58;;;;;;;1.70;1.60;;;26.90;56.50;;;;;;5053682;28;20465;-69
2023/07/22 05:45:26;;;;;;;1.93;1.83;;;26.90;56.60;;;;;;5048828;28;23535;-78
2023/07/22 05:47:54;;;;;;;1.80;1.70;;;26.90;56.60;;;;;;5050147;28;20995;-69
2023/07/22 05:50:23;;;;;;;1.90;1.80;;;26.90;56.70;;;;;;5049770;28;20457;-71
2023/07/22 05:52:51;;;;;;;2.60;2.00;;;26.90;56.70;;;;;;5049165;28;20971;-69
2023/07/22 05:55:19;;;;;;;2.20;2.00;;;26.90;56.70;;;;;;5052671;28;20910;-71
2023/07/22 05:57:49;;;;;;;1.87;1.57;;;26.90;56.60;;;;;;5050366;28;20808;-69
2023/07/22 06:00:17;;;;;;;2.47;1.90;;;26.90;56.60;;;;;;5048375;28;21057;-70
2023/07/22 06:02:45;;;;;;;2.00;1.87;;;26.90;56.80;;;;;;5046846;28;20473;-69
2023/07/22 06:05:13;;;;;;;1.93;1.73;;;26.90;56.80;;;;;;5032738;28;20458;-74
2023/07/22 06:07:42;;;;;;;1.93;1.80;;;26.90;56.70;;;;;;5042928;28;20568;-68
2023/07/22 06:10:11;;;;;;;2.07;1.87;;;26.90;56.60;;;;;;5047608;28;20474;-69
2023/07/22 06:12:40;;;;;;;1.87;1.77;;;26.90;56.70;;;;;;5044535;28;20463;-69
2023/07/22 06:15:11;;;;;;;1.90;1.73;;;26.90;56.70;;;;;;5044196;28;20492;-71
2023/07/22 06:17:39;;;;;;;2.03;1.90;;;26.90;56.70;;;;;;5043470;28;20516;-68
2023/07/22 06:20:09;;;;;;;1.90;1.80;;;26.90;56.60;;;;;;5048766;28;20550;-71
2023/07/22 06:22:37;;;;;;;2.80;2.10;;;27.00;56.70;;;;;;5044962;28;20473;-77
2023/07/22 06:25:06;;;;;;;2.20;1.73;;;27.00;56.80;;;;;;5027758;28;20503;-69
2023/07/22 06:27:35;;;;;;;2.20;2.00;;;27.00;56.60;;;;;;5042488;28;20543;-69
2023/07/22 06:30:03;;;;;;;4.23;2.10;;;27.00;56.70;;;;;;5045819;28;20783;-79
2023/07/22 06:32:33;;;;;;;1.97;1.80;;;27.00;56.90;;;;;;5040288;28;20466;-68
2023/07/22 06:35:01;;;;;;;1.90;1.80;;;27.00;56.90;;;;;;5044921;28;20453;-69
2023/07/22 06:37:30;;;;;;;3.17;1.97;;;27.00;56.90;;;;;;5047211;28;20502;-70
2023/07/22 06:39:58;;;;;;;1.80;1.70;;;27.00;56.90;;;;;;5048807;28;20457;-68
2023/07/22 06:42:27;;;;;;;2.37;2.17;;;27.00;56.90;;;;;;5048320;28;20481;-77
2023/07/22 06:44:55;;;;;;;3.10;2.07;;;27.00;57.00;;;;;;5047370;28;20461;-68
2023/07/22 06:47:23;;;;;;;2.27;2.07;;;26.90;57.00;;;;;;5050886;28;20438;-68
2023/07/22 06:49:53;;;;;;;2.60;2.40;;;27.00;56.90;;;;;;5047479;28;20545;-73
2023/07/22 06:52:21;;;;;;;3.53;2.70;;;27.00;56.90;;;;;;5047268;28;20470;-78
2023/07/22 06:54:49;;;;;;;2.00;1.80;;;27.00;56.90;;;;;;5045119;28;20462;-68
2023/07/22 06:57:18;;;;;;;2.40;2.20;;;27.00;56.90;;;;;;5041234;28;20525;-69
2023/07/22 06:59:46;;;;;;;2.33;2.10;;;27.00;56.90;;;;;;5044783;28;20458;-71
2023/07/22 07:02:14;;;;;;;2.20;2.00;;;27.00;56.90;;;;;;5040633;28;20520;-68
2023/07/22 07:04:42;;;;;;;3.13;1.80;;;27.00;56.90;;;;;;5039636;28;20466;-68
2023/07/22 07:07:12;;;;;;;2.53;2.20;;;27.00;57.00;;;;;;5048966;28;20465;-75
2023/07/22 07:09:40;;;;;;;2.03;1.87;;;27.00;57.00;;;;;;5045275;28;20458;-75
2023/07/22 07:12:09;;;;;;;3.00;2.40;;;27.00;57.00;;;;;;5046346;28;20937;-75
2023/07/22 07:14:37;;;;;;;2.37;2.10;;;27.00;56.80;;;;;;5047202;28;20487;-75
2023/07/22 07:17:06;;;;;;;2.43;2.07;;;27.00;57.00;;;;;;5048938;28;20462;-75
2023/07/22 07:19:34;;;;;;;2.53;2.30;;;27.00;56.90;;;;;;5044445;28;20482;-75
2023/07/22 07:22:02;;;;;;;2.70;1.97;;;27.00;56.80;;;;;;5044314;28;20583;-72
2023/07/22 07:24:32;;;;;;;1.80;1.70;;;27.00;56.70;;;;;;5053243;28;20508;-71
2023/07/22 07:27:00;;;;;;;2.00;1.90;;;27.00;56.90;;;;;;5057130;28;20965;-73
2023/07/22 07:29:28;;;;;;;3.47;1.90;;;27.00;56.80;;;;;;5048973;28;20467;-76
2023/07/22 07:31:59;;;;;;;1.57;1.47;;;27.10;56.90;;;;;;5025068;28;20950;-76
2023/07/22 07:34:28;;;;;;;1.63;1.53;;;27.10;56.70;;;;;;5044949;28;21018;-77
2023/07/22 07:36:56;;;;;;;1.93;1.77;;;27.10;56.70;;;;;;5041483;28;20545;-77
2023/07/22 07:39:25;;;;;;;1.77;1.67;;;27.10;56.80;;;;;;5047331;28;20876;-76
2023/07/22 07:41:55;;;;;;;2.90;2.10;;;27.10;56.70;;;;;;5043682;28;20474;-72
2023/07/22 07:44:23;;;;;;;2.10;1.67;;;27.10;56.70;;;;;;5048479;28;20459;-71
2023/07/22 07:46:51;;;;;;;2.77;1.83;;;27.10;56.70;;;;;;5040151;28;20811;-72
2023/07/22 07:49:19;;;;;;;1.90;1.80;;;27.10;56.60;;;;;;5042293;28;20476;-70
2023/07/22 07:51:49;;;;;;;2.30;1.60;;;27.10;56.60;;;;;;5041592;28;20481;-73
2023/07/22 07:54:17;;;;;;;1.70;1.60;;;27.10;56.50;;;;;;5047228;28;20466;-72
2023/07/22 07:56:45;;;;;;;2.70;1.53;;;27.10;56.60;;;;;;5043914;28;20459;-73
2023/07/22 07:59:15;;;;;;;1.67;1.57;;;27.20;56.50;;;;;;5035554;28;20474;-71
2023/07/22 08:01:43;;;;;;;1.87;1.73;;;27.20;56.50;;;;;;5040092;28;20471;-71
2023/07/22 08:04:12;;;;;;;1.40;1.30;;;27.20;56.50;;;;;;5042480;28;20950;-71
2023/07/22 08:06:40;;;;;;;3.80;2.37;;;27.20;56.40;;;;;;5036306;28;20466;-71
2023/07/22 08:09:10;;;;;;;1.53;1.43;;;27.20;56.50;;;;;;5041379;28;23506;-72
2023/07/22 08:11:40;;;;;;;1.43;1.33;;;27.20;56.50;;;;;;5042588;28;20466;-72
2023/07/22 08:14:09;;;;;;;1.90;1.77;;;27.20;56.70;;;;;;5042314;28;20468;-72
2023/07/22 08:16:38;;;;;;;1.60;1.50;;;27.20;56.60;;;;;;5045604;28;20482;-72
2023/07/22 08:19:06;;;;;;;2.07;1.87;;;27.20;56.40;;;;;;5046173;28;20459;-72
2023/07/22 08:21:35;;;;;;;1.60;1.50;;;27.20;56.50;;;;;;5044696;28;20459;-72
2023/07/22 08:24:03;;;;;;;1.47;1.37;;;27.20;56.50;;;;;;5049181;28;20466;-72
2023/07/22 08:26:31;;;;;;;1.73;1.60;;;27.20;56.40;;;;;;5045290;28;20520;-71
2023/07/22 08:28:59;;;;;;;1.73;1.63;;;27.20;56.50;;;;;;5042938;28;20474;-71
2023/07/22 08:31:27;;;;;;;1.93;1.80;;;27.20;56.50;;;;;;5045916;28;20504;-72
2023/07/22 08:33:57;;;;;;;1.77;1.67;;;27.20;56.40;;;;;;5044024;28;20945;-71
2023/07/22 08:36:25;;;;;;;1.57;1.47;;;27.20;56.50;;;;;;5030759;28;20502;-71
2023/07/22 08:38:54;;;;;;;1.50;1.40;;;27.20;56.40;;;;;;5045394;28;20569;-71
2023/07/22 08:41:25;;;;;;;1.60;1.50;;;27.20;56.50;;;;;;5056941;28;20464;-71
2023/07/22 08:43:55;;;;;;;1.50;1.23;;;27.20;56.40;;;;;;5049512;28;20485;-72
2023/07/22 08:46:26;;;;;;;1.70;1.50;;;27.20;56.40;;;;;;5058144;28;20454;-71
2023/07/22 08:48:57;;;;;;;1.70;1.60;;;27.20;56.40;;;;;;5058383;28;20458;-71
2023/07/22 08:51:28;;;;;;;1.67;1.57;;;27.20;56.40;;;;;;5054051;28;20502;-70
2023/07/22 08:53:57;;;;;;;1.90;1.80;;;27.20;56.50;;;;;;5061030;28;20914;-70
2023/07/22 08:56:39;;;;;;;1.80;1.70;;;27.20;56.40;;;;;;5060194;28;20531;-74
2023/07/22 08:59:07;;;;;;;1.60;1.50;;;27.20;56.40;;;;;;5063296;28;20467;-76
2023/07/22 09:01:36;;;;;;;1.27;1.27;;;27.30;56.30;;;;;;5062277;28;21107;-75
2023/07/22 09:04:06;;;;;;;1.60;1.50;;;27.30;56.40;;;;;;5055636;28;20570;-75
2023/07/22 09:06:35;;;;;;;1.50;1.40;;;27.20;56.30;;;;;;5055648;28;20818;-75
2023/07/22 09:09:07;;;;;;;1.27;1.27;;;27.30;56.30;;;;;;5051381;28;20503;-74
2023/07/22 09:11:36;;;;;;;1.93;1.77;;;27.30;56.30;;;;;;5053055;28;20474;-75
2023/07/22 09:14:05;;;;;;;1.40;1.30;;;27.30;56.30;;;;;;5045025;28;20456;-74
2023/07/22 09:16:34;;;;;;;1.30;1.20;;;27.30;56.40;;;;;;5051996;28;20467;-75
2023/07/22 09:19:06;;;;;;;1.33;1.27;;;27.30;56.40;;;;;;5055023;28;20491;-74
2023/07/22 09:21:35;;;;;;;1.43;1.33;;;27.30;56.30;;;;;;5055875;28;20511;-75
2023/07/22 09:24:21;;;;;;;1.60;1.50;;;27.30;56.20;;;;;;5059877;28;20507;-75
2023/07/22 09:26:50;;;;;;;1.23;1.13;;;27.30;56.20;;;;;;5042320;28;20496;-75
2023/07/22 09:29:19;;;;;;;1.70;1.60;;;27.30;56.30;;;;;;5023578;28;20486;-75
2023/07/22 09:31:52;;;;;;;1.30;1.20;;;27.30;56.30;;;;;;5052947;28;20477;-74
2023/07/22 09:34:25;;;;;;;2.13;1.43;;;27.30;56.20;;;;;;5051863;28;20562;-75
2023/07/22 09:36:57;;;;;;;1.40;1.30;;;27.30;56.40;;;;;;5058234;28;20542;-74
2023/07/22 09:39:26;;;;;;;1.40;1.30;;;27.30;56.30;;;;;;5046927;28;20486;-75
2023/07/22 09:41:54;;;;;;;2.77;1.60;;;27.30;56.40;;;;;;5043165;28;20459;-73
2023/07/22 09:44:22;;;;;;;1.70;1.60;;;27.30;55.70;;;;;;5054464;28;20485;-72
2023/07/22 09:46:51;;;;;;;2.40;1.80;;;27.30;55.80;;;;;;5049846;28;20457;-72
2023/07/22 09:49:21;;;;;;;1.97;1.80;;;27.30;55.30;;;;;;5049289;28;20451;-71
2023/07/22 09:51:52;;;;;;;1.50;1.40;;;27.30;55.50;;;;;;5054096;28;20481;-71
2023/07/22 09:54:30;;;;;;;1.60;1.50;;;27.30;54.90;;;;;;5050229;28;20454;-71
2023/07/22 09:56:59;;;;;;;1.67;1.57;;;27.30;54.60;;;;;;5029831;28;20526;-71
2023/07/22 09:59:30;;;;;;;1.60;1.50;;;27.30;54.50;;;;;;5054176;28;20455;-71
2023/07/22 10:02:02;;;;;;;1.70;1.60;;;27.30;54.70;;;;;;5042636;28;20458;-74
2023/07/22 10:04:37;;;;;;;2.07;1.80;;;27.30;54.40;;;;;;5047617;28;20474;-72
2023/07/22 10:07:08;;;;;;;1.80;1.70;;;27.40;54.40;;;;;;5043152;28;20447;-74
2023/07/22 10:09:39;;;;;;;3.27;1.77;;;27.30;54.20;;;;;;5049023;28;20549;-72
2023/07/22 10:12:09;;;;;;;2.03;1.70;;;27.40;54.50;;;;;;5053123;28;20494;-75
2023/07/22 10:14:38;;;;;;;1.77;1.63;;;27.40;55.20;;;;;;5053340;28;20489;-71
2023/07/22 10:17:08;;;;;;;2.03;1.80;;;27.40;55.00;;;;;;5049868;28;20506;-72
2023/07/22 10:19:38;;;;;;;2.00;1.87;;;27.40;54.80;;;;;;5034024;28;21296;-73
2023/07/22 10:22:10;;;;;;;2.33;1.83;;;27.40;54.40;;;;;;5052714;28;21009;-70
2023/07/22 10:24:41;;;;;;;2.50;2.10;;;27.40;54.50;;;;;;5041939;28;20493;-69
2023/07/22 10:27:10;;;;;;;2.47;1.83;;;27.40;54.30;;;;;;5057211;28;20455;-68
2023/07/22 10:29:40;;;;;;;2.70;2.00;;;27.40;54.90;;;;;;5048117;28;20470;-72
2023/07/22 10:32:09;;;;;;;1.60;1.50;;;27.40;54.60;;;;;;5050377;28;20486;-70
2023/07/22 10:34:39;;;;;;;1.87;1.77;;;27.30;54.20;;;;;;5048324;28;21025;-69
2023/07/22 10:37:12;;;;;;;1.80;1.70;;;27.30;54.40;;;;;;5047329;28;20467;-68
2023/07/22 10:39:41;;;;;;;1.90;1.70;;;27.30;54.30;;;;;;5055953;28;21015;-68
2023/07/22 10:42:10;;;;;;;4.50;1.53;;;27.30;54.80;;;;;;5050312;28;20460;-68
2023/07/22 10:44:40;;;;;;;2.03;1.80;;;27.30;54.90;;;;;;5051880;28;20849;-73
2023/07/22 10:47:09;;;;;;;2.03;1.93;;;27.40;54.30;;;;;;5056471;28;20514;-72
2023/07/22 10:49:45;;;;;;;2.00;1.90;;;27.40;54.10;;;;;;5047662;28;20467;-69
2023/07/22 10:52:36;;;;;;;3.53;2.07;;;27.40;54.20;;;;;;5056089;28;20807;-67
2023/07/22 10:55:14;;;;;;;2.40;2.20;;;27.40;54.10;;;;;;5047818;28;20463;-68
2023/07/22 10:57:50;;;;;;;2.23;2.13;;;27.40;54.20;;;;;;5038562;28;20485;-70
2023/07/22 11:00:22;;;;;;;2.00;1.90;;;27.40;54.40;;;;;;5040678;28;20478;-71
2023/07/22 11:03:12;;;;;;;2.37;1.90;;;27.40;54.50;;;;;;5039545;28;20544;-70
2023/07/22 11:05:52;;;;;;;2.27;2.10;;;27.40;54.20;;;;;;5049061;28;20474;-69
2023/07/22 11:08:38;;;;;;;2.47;1.90;;;27.40;54.40;;;;;;5046614;28;20449;-70
2023/07/22 11:11:06;;;;;;;2.03;1.93;;;27.40;54.40;;;;;;5054549;28;20466;-69
2023/07/22 11:13:39;;;;;;;1.93;1.83;;;27.40;54.40;;;;;;5033658;28;20485;-69
2023/07/22 11:16:11;;;;;;;2.20;2.10;;;27.50;54.40;;;;;;5047505;28;20954;-70
2023/07/22 11:18:40;;;;;;;1.67;1.57;;;27.50;54.30;;;;;;5046699;28;20465;-70
2023/07/22 11:21:10;;;;;;;2.03;1.87;;;27.50;54.10;;;;;;5049724;28;20588;-71
2023/07/22 11:23:40;;;;;;;2.40;2.20;;;27.50;54.20;;;;;;5021804;28;20487;-71
2023/07/22 11:26:10;;;;;;;2.40;2.20;;;27.50;54.10;;;;;;5043980;28;20474;-74
2023/07/22 11:28:41;;;;;;;2.33;2.00;;;27.50;53.90;;;;;;5045782;28;20473;-74
2023/07/22 11:31:09;;;;;;;2.50;2.30;;;27.50;54.20;;;;;;5048397;28;20489;-70
2023/07/22 11:33:43;;;;;;;1.70;1.60;;;27.50;54.00;;;;;;5051994;28;20958;-70
2023/07/22 11:36:11;;;;;;;2.60;1.93;;;27.50;54.00;;;;;;5051177;28;20465;-69
2023/07/22 11:38:41;;;;;;;1.90;1.63;;;27.50;54.00;;;;;;5029277;28;20487;-73
2023/07/22 11:41:10;;;;;;;1.63;1.53;;;27.50;53.90;;;;;;5040531;28;20466;-71
2023/07/22 11:43:39;;;;;;;1.80;1.70;;;27.50;54.00;;;;;;5042119;28;20775;-74
2023/07/22 11:46:08;;;;;;;1.90;1.80;;;27.50;54.00;;;;;;5050171;28;20473;-70
2023/07/22 11:48:36;;;;;;;1.87;1.77;;;27.50;54.00;;;;;;5040994;28;20481;-70
2023/07/22 11:51:05;;;;;;;1.77;1.67;;;27.50;54.00;;;;;;5046374;28;20979;-69
2023/07/22 11:53:34;;;;;;;2.07;1.93;;;27.50;54.00;;;;;;5043315;28;20477;-74
2023/07/22 11:56:04;;;;;;;3.47;1.77;;;27.50;53.90;;;;;;5046287;28;20476;-70
2023/07/22 11:58:35;;;;;;;2.20;2.00;;;27.50;53.90;;;;;;5041684;28;20491;-69
2023/07/22 12:01:04;;;;;;;2.10;1.90;;;27.60;53.90;;;;;;5047723;28;20456;-70
2023/07/22 12:03:34;;;;;;;2.07;1.90;;;27.60;53.90;;;;;;5039783;28;20469;-70
2023/07/22 12:06:03;;;;;;;1.80;1.70;;;27.70;53.80;;;;;;5042831;28;20481;-73
2023/07/22 12:08:32;;;;;;;1.90;1.80;;;27.80;53.60;;;;;;5047935;28;20953;-69
2023/07/22 12:11:03;;;;;;;1.87;1.77;;;27.90;53.40;;;;;;5047213;28;20461;-72
2023/07/22 12:13:37;;;;;;;1.80;1.70;;;28.20;53.00;;;;;;5026105;28;20464;-70
2023/07/22 12:16:06;;;;;;;2.10;2.00;;;28.30;52.60;;;;;;5048513;28;20512;-72
2023/07/22 12:18:44;;;;;;;1.93;1.83;;;28.30;52.70;;;;;;5044839;28;20487;-69
2023/07/22 12:21:13;;;;;;;1.53;1.43;;;28.50;52.30;;;;;;5046280;28;20510;-73
2023/07/22 12:23:42;;;;;;;1.80;1.70;;;28.70;52.00;;;;;;5046723;28;20817;-73
2023/07/22 12:26:12;;;;;;;4.50;2.03;;;28.80;51.80;;;;;;5047642;28;20486;-69
2023/07/22 12:28:40;;;;;;;1.40;1.30;;;28.90;51.50;;;;;;5045304;28;20475;-70
2023/07/22 12:31:09;;;;;;;2.07;1.90;;;29.00;51.40;;;;;;5045399;28;20856;-70
2023/07/22 12:33:37;;;;;;;2.37;2.17;;;29.00;51.30;;;;;;5046376;28;20472;-69
2023/07/22 12:36:06;;;;;;;4.10;1.80;;;29.00;51.30;;;;;;5048891;28;21470;-69
2023/07/22 12:38:34;;;;;;;2.50;2.30;;;28.90;51.40;;;;;;5043667;28;20486;-72
2023/07/22 12:41:03;;;;;;;1.97;1.87;;;28.80;51.50;;;;;;5048945;28;20457;-73
2023/07/22 12:43:32;;;;;;;1.90;1.80;;;28.70;51.60;;;;;;5029661;28;20855;-70
2023/07/22 12:46:00;;;;;;;1.93;1.83;;;28.70;51.90;;;;;;5045834;28;20715;-70
2023/07/22 12:48:29;;;;;;;2.03;1.93;;;28.60;51.80;;;;;;5044631;28;20957;-70
2023/07/22 12:50:57;;;;;;;2.50;1.97;;;28.50;51.90;;;;;;5047592;28;20460;-71
2023/07/22 12:53:26;;;;;;;1.80;1.70;;;28.30;52.10;;;;;;5046647;28;20466;-69
2023/07/22 12:55:54;;;;;;;2.63;2.43;;;28.20;52.40;;;;;;5041963;28;20461;-74
2023/07/22 12:58:22;;;;;;;2.37;2.20;;;28.10;52.60;;;;;;5046835;28;20469;-74